createdAt,value
2019-04-01T00:00:41.207Z,8.56
2019-04-01T00:03:10.926Z,8.27
2019-04-01T00:05:39.610Z,8.21
2019-04-01T00:08:08.241Z,8.36
2019-04-01T00:10:36.985Z,8.28
2019-04-01T00:13:05.642Z,8.37
2019-04-01T00:15:34.091Z,7.63
2019-04-01T00:18:02.522Z,7.79
2019-04-01T00:20:31.292Z,7.90
2019-04-01T00:22:59.948Z,7.88
2019-04-01T00:25:28.511Z,7.67
2019-04-01T00:27:57.170Z,7.67
2019-04-01T00:30:25.666Z,7.88
2019-04-01T00:32:54.396Z,7.77
2019-04-01T00:35:23.057Z,7.32
2019-04-01T00:37:51.802Z,7.69
2019-04-01T00:40:20.373Z,7.85
2019-04-01T00:42:54.528Z,7.33
2019-04-01T00:45:23.646Z,7.50
2019-04-01T00:47:52.201Z,7.52
2019-04-01T00:50:20.850Z,7.51
2019-04-01T00:52:49.510Z,7.36
2019-04-01T00:55:18.135Z,7.31
2019-04-01T00:57:46.816Z,7.35
2019-04-01T01:00:17.372Z,7.78
2019-04-01T01:02:45.914Z,7.49
2019-04-01T01:05:14.550Z,7.41
2019-04-01T01:07:43.211Z,7.44
2019-04-01T01:10:12.093Z,7.38
2019-04-01T01:12:40.651Z,7.27
2019-04-01T01:15:09.407Z,7.20
2019-04-01T01:17:37.984Z,7.29
2019-04-01T01:20:06.856Z,7.05
2019-04-01T01:22:35.507Z,7.46
2019-04-01T01:25:04.390Z,7.15
2019-04-01T01:27:33.047Z,6.96
2019-04-01T01:30:01.678Z,7.06
2019-04-01T01:32:30.542Z,7.11
2019-04-01T01:34:59.119Z,6.74
2019-04-01T01:37:27.735Z,7.23
2019-04-01T01:39:56.595Z,7.07
2019-04-01T01:42:25.220Z,6.68
2019-04-01T01:44:56.113Z,6.42
2019-04-01T01:47:24.710Z,6.61
2019-04-01T01:49:53.156Z,6.55
2019-04-01T01:52:22.698Z,6.86
2019-04-01T01:54:51.442Z,7.25
2019-04-01T01:57:20.143Z,7.21
2019-04-01T01:59:48.734Z,7.54
2019-04-01T02:02:17.375Z,6.98
2019-04-01T02:04:46.049Z,6.68
2019-04-01T02:07:14.658Z,6.35
2019-04-01T02:09:43.253Z,7.16
2019-04-01T02:12:11.953Z,6.65
2019-04-01T02:14:40.634Z,6.39
2019-04-01T02:17:09.373Z,6.11
2019-04-01T02:19:37.855Z,6.27
2019-04-01T02:22:06.602Z,6.89
2019-04-01T02:24:35.735Z,6.87
2019-04-01T02:27:04.417Z,6.55
2019-04-01T02:29:33.257Z,6.73
2019-04-01T02:32:01.951Z,6.73
2019-04-01T02:34:30.863Z,7.09
2019-04-01T02:36:59.674Z,7.11
2019-04-01T02:39:28.377Z,6.86
2019-04-01T02:41:57.013Z,7.02
2019-04-01T02:44:25.713Z,6.88
2019-04-01T02:46:54.363Z,7.02
2019-04-01T02:49:22.993Z,7.40
2019-04-01T02:51:51.556Z,7.36
2019-04-01T02:54:20.190Z,7.07
2019-04-01T02:56:48.761Z,6.94
2019-04-01T02:59:17.400Z,7.06
2019-04-01T03:01:46.082Z,6.91
2019-04-01T03:04:14.725Z,7.40
2019-04-01T03:06:43.333Z,7.76
2019-04-01T03:09:11.921Z,7.52
2019-04-01T03:11:40.581Z,7.45
2019-04-01T03:14:09.246Z,7.61
2019-04-01T03:16:37.785Z,7.41
2019-04-01T03:19:06.339Z,7.04
2019-04-01T03:21:34.875Z,7.60
2019-04-01T03:24:03.717Z,7.43
2019-04-01T03:26:32.398Z,7.69
2019-04-01T03:29:01.045Z,7.48
2019-04-01T03:31:29.758Z,7.45
2019-04-01T03:33:58.449Z,7.51
2019-04-01T03:36:27.109Z,7.87
2019-04-01T03:38:55.662Z,7.84
2019-04-01T03:41:24.403Z,7.68
2019-04-01T03:43:52.986Z,7.64
2019-04-01T03:46:21.703Z,7.54
2019-04-01T03:48:50.373Z,7.60
2019-04-01T03:51:19.062Z,7.40
2019-04-01T03:53:47.739Z,6.73
2019-04-01T03:56:16.388Z,6.99
2019-04-01T03:58:44.945Z,7.12
2019-04-01T04:01:13.527Z,7.09
2019-04-01T04:03:42.263Z,7.28
2019-04-01T04:06:10.833Z,6.71
2019-04-01T04:08:39.487Z,6.60
2019-04-01T04:11:08.174Z,7.26
2019-04-01T04:13:36.869Z,6.39
2019-04-01T04:16:05.581Z,6.49
2019-04-01T04:18:34.178Z,6.47
2019-04-01T04:21:02.731Z,6.44
2019-04-01T04:23:31.526Z,6.97
2019-04-01T04:26:00.177Z,6.53
2019-04-01T04:28:28.840Z,6.67
2019-04-01T04:30:57.469Z,6.39
2019-04-01T04:33:26.117Z,6.78
2019-04-01T04:35:54.700Z,7.00
2019-04-01T04:38:23.399Z,6.76
2019-04-01T04:40:51.914Z,6.49
2019-04-01T04:43:20.577Z,6.94
2019-04-01T04:45:49.136Z,6.79
2019-04-01T04:48:17.809Z,7.00
2019-04-01T04:50:46.526Z,7.53
2019-04-01T04:53:15.267Z,6.70
2019-04-01T04:55:43.987Z,6.72
2019-04-01T04:58:12.741Z,6.91
2019-04-01T05:00:41.379Z,7.31
2019-04-01T05:03:10.167Z,7.43
2019-04-01T05:05:38.758Z,7.56
2019-04-01T05:08:07.323Z,7.87
2019-04-01T05:10:35.871Z,8.02
2019-04-01T05:13:04.656Z,7.97
2019-04-01T05:15:33.611Z,8.15
2019-04-01T05:18:02.283Z,7.92
2019-04-01T05:20:31.625Z,7.81
2019-04-01T05:23:01.690Z,7.95
2019-04-01T05:25:32.029Z,8.52
2019-04-01T05:28:02.349Z,8.36
2019-04-01T05:30:33.065Z,8.62
2019-04-01T05:33:03.413Z,8.81
2019-04-01T05:35:34.661Z,9.04
2019-04-01T05:38:04.267Z,9.49
2019-04-01T05:40:33.998Z,9.62
2019-04-01T05:43:02.946Z,9.88
2019-04-01T05:45:31.714Z,10.16
2019-04-01T05:48:00.535Z,10.24
2019-04-01T05:50:29.122Z,10.28
2019-04-01T05:52:57.924Z,10.50
2019-04-01T05:55:26.759Z,10.67
2019-04-01T05:57:55.585Z,10.64
2019-04-01T06:00:29.870Z,10.74
2019-04-01T06:02:58.747Z,10.89
2019-04-01T06:05:29.670Z,10.96
2019-04-01T06:07:58.663Z,11.03
2019-04-01T06:10:27.344Z,11.00
2019-04-01T06:12:56.548Z,11.10
2019-04-01T06:15:25.303Z,11.21
2019-04-01T06:17:54.662Z,11.35
2019-04-01T06:20:23.348Z,11.41
2019-04-01T06:22:52.012Z,11.66
2019-04-01T06:25:21.163Z,11.59
2019-04-01T06:27:50.084Z,11.74
2019-04-01T06:30:18.957Z,11.84
2019-04-01T06:32:47.827Z,11.96
2019-04-01T06:35:16.407Z,12.03
2019-04-01T06:37:45.160Z,12.14
2019-04-01T06:40:13.934Z,12.25
2019-04-01T06:42:42.605Z,12.30
2019-04-01T06:45:12.771Z,12.40
2019-04-01T06:47:41.829Z,12.47
2019-04-01T06:50:10.807Z,12.61
2019-04-01T06:52:39.550Z,12.76
2019-04-01T06:55:08.444Z,12.87
2019-04-01T06:57:37.109Z,13.03
2019-04-01T07:00:06.207Z,13.05
2019-04-01T07:02:35.047Z,13.16
2019-04-01T07:05:04.119Z,13.19
2019-04-01T07:07:32.799Z,13.28
2019-04-01T07:10:02.196Z,13.39
2019-04-01T07:12:31.082Z,13.51
2019-04-01T07:14:59.704Z,13.61
2019-04-01T07:17:28.817Z,13.66
2019-04-01T07:19:57.486Z,13.71
2019-04-01T07:22:26.313Z,13.91
2019-04-01T07:24:55.159Z,14.08
2019-04-01T07:27:24.743Z,14.17
2019-04-01T07:29:53.411Z,14.25
2019-04-01T07:32:22.069Z,14.24
2019-04-01T07:34:50.868Z,14.27
2019-04-01T07:37:19.635Z,14.29
2019-04-01T07:39:48.364Z,14.37
2019-04-01T07:42:17.028Z,14.50
2019-04-01T07:44:45.696Z,14.62
2019-04-01T07:47:14.361Z,14.74
2019-04-01T07:49:43.006Z,14.83
2019-04-01T07:52:11.900Z,14.86
2019-04-01T07:54:40.872Z,15.10
2019-04-01T07:57:09.517Z,15.12
2019-04-01T07:59:38.308Z,15.24
2019-04-01T08:02:06.937Z,15.22
2019-04-01T08:04:36.119Z,15.35
2019-04-01T08:07:05.062Z,15.42
2019-04-01T08:09:33.697Z,15.43
2019-04-01T08:12:02.245Z,15.52
2019-04-01T08:14:30.921Z,15.78
2019-04-01T08:16:59.851Z,15.75
2019-04-01T08:19:28.413Z,15.67
2019-04-01T08:21:57.281Z,15.80
2019-04-01T08:24:25.892Z,15.91
2019-04-01T08:26:54.458Z,15.88
2019-04-01T08:29:30.208Z,15.94
2019-04-01T08:31:53.543Z,15.93
2019-04-01T08:34:22.229Z,15.92
2019-04-01T08:36:50.971Z,16.10
2019-04-01T08:39:19.737Z,16.42
2019-04-01T08:41:48.305Z,16.48
2019-04-01T08:44:17.482Z,16.36
2019-04-01T08:46:46.094Z,16.36
2019-04-01T08:49:14.744Z,16.60
2019-04-01T08:51:43.611Z,16.69
2019-04-01T08:54:12.217Z,16.55
2019-04-01T08:56:40.872Z,16.54
2019-04-01T08:59:09.756Z,16.90
2019-04-01T09:01:38.448Z,16.79
2019-04-01T09:04:07.048Z,16.98
2019-04-01T09:06:35.754Z,16.87
2019-04-01T09:09:06.039Z,17.18
2019-04-01T09:11:38.238Z,17.39
2019-04-01T09:14:05.515Z,17.24
2019-04-01T09:16:35.020Z,17.58
2019-04-01T09:19:03.791Z,17.36
2019-04-01T09:21:32.485Z,17.68
2019-04-01T09:24:01.072Z,17.38
2019-04-01T09:26:29.629Z,17.29
2019-04-01T09:28:58.307Z,17.50
2019-04-01T09:31:26.881Z,18.02
2019-04-01T09:33:55.442Z,17.74
2019-04-01T09:36:24.130Z,17.84
2019-04-01T09:38:52.822Z,18.02
2019-04-01T09:41:21.530Z,17.40
2019-04-01T09:43:50.186Z,17.65
2019-04-01T09:46:18.753Z,18.00
2019-04-01T09:48:47.410Z,17.88
2019-04-01T09:51:16.262Z,18.03
2019-04-01T09:53:44.871Z,18.39
2019-04-01T09:56:13.434Z,18.57
2019-04-01T09:58:42.041Z,18.42
2019-04-01T10:01:10.788Z,18.30
2019-04-01T10:03:39.794Z,18.13
2019-04-01T10:06:10.398Z,18.25
2019-04-01T10:08:42.680Z,18.49
2019-04-01T10:11:12.419Z,18.99
2019-04-01T10:13:39.879Z,18.94
2019-04-01T10:16:08.558Z,19.28
2019-04-01T10:18:37.161Z,19.23
2019-04-01T10:21:05.925Z,19.03
2019-04-01T10:23:34.571Z,18.90
2019-04-01T10:26:03.460Z,19.08
2019-04-01T10:28:32.489Z,18.68
2019-04-01T10:31:01.432Z,18.81
2019-04-01T10:33:30.210Z,18.99
2019-04-01T10:35:58.805Z,18.70
2019-04-01T10:38:27.548Z,18.87
2019-04-01T10:40:56.325Z,18.94
2019-04-01T10:43:24.858Z,18.82
2019-04-01T10:45:53.520Z,18.64
2019-04-01T10:48:22.222Z,18.87
2019-04-01T10:50:51.018Z,19.26
2019-04-01T10:53:19.610Z,19.20
2019-04-01T10:55:48.374Z,19.23
2019-04-01T10:58:16.989Z,19.09
2019-04-01T11:00:45.823Z,18.99
2019-04-01T11:03:14.404Z,19.21
2019-04-01T11:05:43.019Z,19.34
2019-04-01T11:08:11.585Z,19.32
2019-04-01T11:10:40.509Z,19.22
2019-04-01T11:13:09.211Z,19.25
2019-04-01T11:15:37.865Z,19.31
2019-04-01T11:18:07.076Z,19.32
2019-04-01T11:20:36.157Z,19.53
2019-04-01T11:23:05.508Z,19.43
2019-04-01T11:25:34.171Z,19.57
2019-04-01T11:28:02.952Z,19.26
2019-04-01T11:30:31.961Z,19.21
2019-04-01T11:33:00.756Z,19.28
2019-04-01T11:35:29.508Z,19.34
2019-04-01T11:37:58.053Z,19.29
2019-04-01T11:40:26.624Z,20.29
2019-04-01T11:42:55.578Z,20.78
2019-04-01T11:45:24.227Z,21.06
2019-04-01T11:47:53.111Z,20.94
2019-04-01T11:50:21.931Z,20.53
2019-04-01T11:52:50.812Z,20.41
2019-04-01T11:55:19.323Z,20.69
2019-04-01T11:57:48.103Z,20.56
2019-04-01T12:00:18.023Z,20.25
2019-04-01T12:02:46.794Z,19.89
2019-04-01T12:05:15.446Z,20.49
2019-04-01T12:07:44.126Z,20.84
2019-04-01T12:10:13.125Z,21.62
2019-04-01T12:12:41.688Z,20.62
2019-04-01T12:15:12.310Z,20.97
2019-04-01T12:17:42.113Z,21.05
2019-04-01T12:20:11.141Z,21.63
2019-04-01T12:22:41.263Z,20.99
2019-04-01T12:25:10.566Z,21.11
2019-04-01T12:27:39.460Z,21.64
2019-04-01T12:30:08.269Z,21.55
2019-04-01T12:32:37.164Z,21.25
2019-04-01T12:35:06.317Z,21.25
2019-04-01T12:37:34.971Z,21.02
2019-04-01T12:40:04.214Z,21.13
2019-04-01T12:42:32.865Z,21.26
2019-04-01T12:45:01.758Z,21.45
2019-04-01T12:47:30.808Z,21.26
2019-04-01T12:49:59.872Z,21.70
2019-04-01T12:52:28.498Z,21.52
2019-04-01T12:55:00.686Z,21.60
2019-04-01T12:57:28.152Z,21.30
2019-04-01T12:59:56.961Z,21.45
2019-04-01T13:02:25.520Z,20.93
2019-04-01T13:04:54.079Z,21.01
2019-04-01T13:07:22.659Z,20.64
2019-04-01T13:09:51.645Z,21.03
2019-04-01T13:12:20.670Z,21.51
2019-04-01T13:14:49.423Z,21.29
2019-04-01T13:17:18.011Z,21.08
2019-04-01T13:19:46.806Z,20.96
2019-04-01T13:22:15.388Z,20.86
2019-04-01T13:24:44.303Z,21.32
2019-04-01T13:27:13.076Z,20.74
2019-04-01T13:29:41.721Z,21.07
2019-04-01T13:32:10.567Z,20.89
2019-04-01T13:34:39.387Z,21.02
2019-04-01T13:37:08.099Z,21.28
2019-04-01T13:39:37.145Z,21.31
2019-04-01T13:42:05.807Z,21.61
2019-04-01T13:44:37.195Z,21.50
2019-04-01T13:47:05.438Z,21.13
2019-04-01T13:49:34.669Z,21.60
2019-04-01T13:52:03.992Z,21.36
2019-04-01T13:54:32.714Z,21.14
2019-04-01T13:57:01.366Z,21.30
2019-04-01T13:59:30.149Z,21.29
2019-04-01T14:01:58.895Z,21.10
2019-04-01T14:04:27.803Z,21.18
2019-04-01T14:06:56.562Z,21.32
2019-04-01T14:09:25.344Z,20.93
2019-04-01T14:11:54.425Z,20.86
2019-04-01T14:14:23.018Z,20.71
2019-04-01T14:16:51.603Z,20.75
2019-04-01T14:19:20.309Z,21.15
2019-04-01T14:21:48.893Z,21.25
2019-04-01T14:24:17.675Z,21.03
2019-04-01T14:26:46.359Z,21.22
2019-04-01T14:29:16.647Z,21.47
2019-04-01T14:31:45.479Z,21.04
2019-04-01T14:34:22.894Z,21.23
2019-04-01T14:36:44.831Z,21.63
2019-04-01T14:39:13.762Z,21.79
2019-04-01T14:41:42.733Z,21.38
2019-04-01T14:44:11.394Z,21.31
2019-04-01T14:46:40.620Z,21.64
2019-04-01T14:49:09.418Z,22.17
2019-04-01T14:51:38.168Z,21.89
2019-04-01T14:54:07.012Z,22.14
2019-04-01T14:56:35.797Z,22.11
2019-04-01T14:59:04.375Z,22.12
2019-04-01T15:01:33.341Z,22.27
2019-04-01T15:04:02.000Z,21.72
2019-04-01T15:06:30.680Z,21.81
2019-04-01T15:08:59.362Z,21.88
2019-04-01T15:11:28.052Z,22.15
2019-04-01T15:13:59.924Z,21.72
2019-04-01T15:16:27.483Z,21.50
2019-04-01T15:18:56.091Z,21.26
2019-04-01T15:21:25.132Z,20.81
2019-04-01T15:23:54.201Z,20.86
2019-04-01T15:26:22.762Z,20.93
2019-04-01T15:28:51.513Z,20.66
2019-04-01T15:31:20.184Z,21.12
2019-04-01T15:33:49.419Z,21.62
2019-04-01T15:36:18.891Z,20.75
2019-04-01T15:38:47.758Z,20.37
2019-04-01T15:41:16.528Z,20.12
2019-04-01T15:43:45.184Z,19.98
2019-04-01T15:46:13.721Z,19.95
2019-04-01T15:48:43.066Z,19.90
2019-04-01T15:51:11.617Z,19.90
2019-04-01T15:53:40.433Z,19.85
2019-04-01T15:56:08.988Z,19.83
2019-04-01T15:58:37.620Z,19.79
2019-04-01T16:01:06.375Z,19.76
2019-04-01T16:03:35.065Z,19.76
2019-04-01T16:06:07.447Z,19.69
2019-04-01T16:08:34.630Z,19.55
2019-04-01T16:11:03.491Z,19.50
2019-04-01T16:13:32.315Z,19.53
2019-04-01T16:16:01.195Z,19.37
2019-04-01T16:18:30.996Z,19.25
2019-04-01T16:20:59.867Z,19.21
2019-04-01T16:23:28.606Z,19.17
2019-04-01T16:25:57.156Z,19.11
2019-04-01T16:28:25.994Z,18.98
2019-04-01T16:30:55.325Z,18.99
2019-04-01T16:33:24.852Z,18.92
2019-04-01T16:35:53.413Z,18.85
2019-04-01T16:38:22.089Z,18.78
2019-04-01T16:40:52.413Z,18.66
2019-04-01T16:43:21.215Z,18.62
2019-04-01T16:45:50.191Z,18.55
2019-04-01T16:48:18.851Z,18.60
2019-04-01T16:50:47.520Z,18.59
2019-04-01T16:53:16.267Z,18.54
2019-04-01T16:55:45.152Z,18.47
2019-04-01T16:58:13.997Z,18.43
2019-04-01T17:00:42.575Z,18.29
2019-04-01T17:03:13.583Z,18.24
2019-04-01T17:05:41.828Z,18.09
2019-04-01T17:08:10.884Z,18.09
2019-04-01T17:10:39.747Z,18.05
2019-04-01T17:13:08.435Z,18.01
2019-04-01T17:15:37.616Z,18.07
2019-04-01T17:18:06.192Z,18.01
2019-04-01T17:20:36.527Z,18.04
2019-04-01T17:23:05.315Z,18.19
2019-04-01T17:25:33.855Z,18.25
2019-04-01T17:28:03.119Z,18.17
2019-04-01T17:30:31.783Z,18.09
2019-04-01T17:33:00.869Z,17.85
2019-04-01T17:35:29.756Z,18.21
2019-04-01T17:37:58.416Z,17.85
2019-04-01T17:40:27.183Z,17.91
2019-04-01T17:42:55.978Z,17.78
2019-04-01T17:45:43.234Z,17.82
2019-04-01T17:48:21.228Z,17.63
2019-04-01T17:50:50.819Z,17.74
2019-04-01T17:53:19.636Z,17.23
2019-04-01T17:55:48.636Z,17.22
2019-04-01T17:58:17.310Z,17.25
2019-04-01T18:00:51.065Z,17.04
2019-04-01T18:03:19.852Z,16.81
2019-04-01T18:05:48.757Z,16.62
2019-04-01T18:08:17.894Z,16.95
2019-04-01T18:10:48.792Z,16.84
2019-04-01T18:13:17.863Z,16.67
2019-04-01T18:15:46.761Z,16.90
2019-04-01T18:18:26.662Z,16.50
2019-04-01T18:20:46.384Z,16.48
2019-04-01T18:23:15.177Z,16.69
2019-04-01T18:25:43.920Z,16.22
2019-04-01T18:28:13.070Z,16.34
2019-04-01T18:30:42.483Z,16.37
2019-04-01T18:33:11.243Z,16.57
2019-04-01T18:35:40.235Z,15.97
2019-04-01T18:38:22.386Z,15.97
2019-04-01T18:40:50.968Z,16.18
2019-04-01T18:43:19.671Z,16.19
2019-04-01T18:45:48.376Z,16.18
2019-04-01T18:48:17.129Z,15.60
2019-04-01T18:50:45.969Z,15.52
2019-04-01T18:53:15.089Z,15.58
2019-04-01T18:55:43.627Z,15.69
2019-04-01T18:58:12.368Z,15.85
2019-04-01T19:00:41.089Z,15.82
2019-04-01T19:03:10.672Z,15.99
2019-04-01T19:05:39.604Z,15.96
2019-04-01T19:08:08.306Z,15.96
2019-04-01T19:10:39.329Z,15.67
2019-04-01T19:13:12.190Z,15.15
2019-04-01T19:15:41.850Z,15.31
2019-04-01T19:18:11.053Z,15.45
2019-04-01T19:20:40.407Z,15.15
2019-04-01T19:23:09.457Z,15.30
2019-04-01T19:25:38.863Z,15.17
2019-04-01T19:28:07.964Z,15.11
2019-04-01T19:30:36.888Z,15.27
2019-04-01T19:33:06.796Z,15.24
2019-04-01T19:35:35.858Z,14.89
2019-04-01T19:38:07.211Z,14.34
2019-04-01T19:40:35.497Z,13.81
2019-04-01T19:43:04.213Z,13.88
2019-04-01T19:45:33.063Z,14.21
2019-04-01T19:48:02.358Z,14.44
2019-04-01T19:50:32.467Z,14.07
2019-04-01T19:53:02.849Z,13.65
2019-04-01T19:55:32.128Z,14.05
2019-04-01T19:58:00.900Z,13.98
2019-04-01T20:00:30.655Z,13.68
2019-04-01T20:02:59.835Z,13.75
2019-04-01T20:05:31.428Z,13.70
2019-04-01T20:08:00.193Z,13.66
2019-04-01T20:10:29.080Z,14.21
2019-04-01T20:12:57.899Z,14.03
2019-04-01T20:15:26.626Z,13.61
2019-04-01T20:17:55.478Z,13.68
2019-04-01T20:20:24.335Z,13.42
2019-04-01T20:22:53.924Z,13.21
2019-04-01T20:25:23.091Z,13.40
2019-04-01T20:27:51.676Z,13.28
2019-04-01T20:30:20.840Z,13.40
2019-04-01T20:32:49.502Z,13.75
2019-04-01T20:35:23.809Z,13.80
2019-04-01T20:37:49.102Z,13.65
2019-04-01T20:40:18.143Z,13.90
2019-04-01T20:42:47.364Z,13.80
2019-04-01T20:45:16.222Z,14.15
2019-04-01T20:47:45.010Z,14.18
2019-04-01T20:50:14.062Z,14.24
2019-04-01T20:52:42.815Z,14.35
2019-04-01T20:55:13.281Z,14.33
2019-04-01T20:57:42.272Z,14.26
2019-04-01T21:00:11.350Z,14.04
2019-04-01T21:02:40.112Z,13.69
2019-04-01T21:05:09.184Z,13.58
2019-04-01T21:07:37.996Z,13.36
2019-04-01T21:10:07.295Z,13.68
2019-04-01T21:12:36.142Z,13.65
2019-04-01T21:15:07.066Z,13.52
2019-04-01T21:17:36.009Z,13.38
2019-04-01T21:20:05.467Z,13.03
2019-04-01T21:22:34.243Z,13.11
2019-04-01T21:25:03.062Z,13.15
2019-04-01T21:27:31.811Z,13.51
2019-04-01T21:30:00.497Z,13.72
2019-04-01T21:32:29.386Z,13.38
2019-04-01T21:34:58.002Z,13.13
2019-04-01T21:37:26.570Z,13.04
2019-04-01T21:39:55.429Z,12.52
2019-04-01T21:42:24.107Z,11.88
2019-04-01T21:44:52.765Z,11.78
2019-04-01T21:47:21.440Z,11.51
2019-04-01T21:49:49.992Z,11.44
2019-04-01T21:52:18.571Z,11.58
2019-04-01T21:54:47.258Z,11.82
2019-04-01T21:57:15.908Z,11.40
2019-04-01T21:59:45.143Z,11.30
2019-04-01T22:02:15.184Z,11.40
2019-04-01T22:04:43.767Z,11.15
2019-04-01T22:07:12.340Z,11.25
2019-04-01T22:09:41.092Z,11.18
2019-04-01T22:12:09.532Z,10.95
2019-04-01T22:14:38.201Z,10.88
2019-04-01T22:17:06.970Z,11.18
2019-04-01T22:19:35.541Z,11.23
2019-04-01T22:22:04.110Z,10.68
2019-04-01T22:24:33.032Z,10.62
2019-04-01T22:27:04.404Z,10.94
2019-04-01T22:29:33.196Z,11.22
2019-04-01T22:32:01.855Z,11.54
2019-04-01T22:34:30.591Z,10.91
2019-04-01T22:36:59.156Z,10.76
2019-04-01T22:39:27.802Z,10.70
2019-04-01T22:41:58.257Z,11.19
2019-04-01T22:44:29.459Z,11.38
2019-04-01T22:46:58.004Z,10.92
2019-04-01T22:49:26.762Z,11.36
2019-04-01T22:51:55.335Z,11.29
2019-04-01T22:54:23.923Z,10.80
2019-04-01T22:56:52.583Z,10.70
2019-04-01T22:59:21.160Z,10.94
2019-04-01T23:01:49.750Z,11.11
2019-04-01T23:04:18.305Z,11.19
2019-04-01T23:06:47.044Z,11.33
2019-04-01T23:09:15.702Z,10.97
2019-04-01T23:11:44.382Z,10.54
2019-04-01T23:14:13.067Z,11.31
2019-04-01T23:16:41.778Z,10.81
2019-04-01T23:19:10.450Z,10.62
2019-04-01T23:21:39.143Z,10.46
2019-04-01T23:24:07.731Z,11.08
2019-04-01T23:26:36.492Z,10.71
2019-04-01T23:29:05.080Z,10.37
2019-04-01T23:31:33.678Z,10.60
2019-04-01T23:34:02.370Z,10.08
2019-04-01T23:36:31.155Z,10.12
2019-04-01T23:38:59.848Z,10.26
2019-04-01T23:41:30.064Z,10.32
2019-04-01T23:43:58.671Z,10.31
2019-04-01T23:46:27.330Z,10.15
2019-04-01T23:48:55.995Z,9.92
2019-04-01T23:51:24.566Z,9.99
2019-04-01T23:53:53.371Z,10.19
2019-04-01T23:56:21.953Z,10.02
2019-04-01T23:58:51.189Z,10.35
